createdAt,value
2018-07-02T00:00:52.182Z,17.41
2018-07-02T00:01:52.159Z,17.38
2018-07-02T00:02:52.192Z,17.28
2018-07-02T00:03:52.187Z,17.35
2018-07-02T00:04:52.214Z,17.32
2018-07-02T00:05:52.265Z,17.32
2018-07-02T00:06:52.266Z,17.47
2018-07-02T00:07:52.235Z,17.27
2018-07-02T00:08:52.243Z,17.22
2018-07-02T00:09:52.259Z,17.05
2018-07-02T00:10:52.266Z,17.09
2018-07-02T00:11:52.311Z,17.07
2018-07-02T00:12:52.280Z,17.19
2018-07-02T00:13:52.308Z,17.23
2018-07-02T00:14:52.309Z,17.16
2018-07-02T00:15:52.321Z,17.20
2018-07-02T00:16:52.347Z,17.24
2018-07-02T00:17:52.392Z,17.07
2018-07-02T00:18:52.360Z,17.12
2018-07-02T00:19:52.368Z,17.05
2018-07-02T00:20:52.383Z,17.16
2018-07-02T00:21:52.397Z,17.12
2018-07-02T00:22:52.422Z,16.99
2018-07-02T00:23:52.433Z,17.13
2018-07-02T00:24:52.442Z,17.04
2018-07-02T00:25:52.471Z,16.95
2018-07-02T00:26:52.464Z,16.86
2018-07-02T00:27:52.465Z,16.98
2018-07-02T00:28:52.493Z,16.89
2018-07-02T00:29:52.491Z,16.89
2018-07-02T00:30:52.482Z,16.94
2018-07-02T00:31:52.555Z,16.92
2018-07-02T00:32:52.518Z,16.84
2018-07-02T00:33:52.557Z,16.89
2018-07-02T00:34:52.530Z,16.82
2018-07-02T00:35:52.565Z,16.83
2018-07-02T00:36:52.547Z,16.79
2018-07-02T00:37:52.560Z,16.76
2018-07-02T00:38:52.599Z,16.77
2018-07-02T00:39:52.574Z,16.74
2018-07-02T00:40:52.599Z,16.68
2018-07-02T00:41:52.606Z,16.79
2018-07-02T00:42:52.689Z,16.69
2018-07-02T00:43:52.630Z,16.77
2018-07-02T00:44:52.637Z,16.83
2018-07-02T00:45:52.647Z,16.84
2018-07-02T00:46:52.681Z,16.64
2018-07-02T00:47:52.665Z,16.62
2018-07-02T00:48:52.711Z,16.82
2018-07-02T00:49:52.683Z,16.83
2018-07-02T00:50:52.700Z,16.95
2018-07-02T00:51:52.714Z,16.87
2018-07-02T00:52:52.737Z,16.87
2018-07-02T00:53:52.786Z,16.87
2018-07-02T00:54:52.766Z,16.80
2018-07-02T00:55:52.763Z,16.91
2018-07-02T00:56:52.785Z,16.92
2018-07-02T00:57:52.776Z,16.89
2018-07-02T00:58:52.827Z,16.74
2018-07-02T00:59:52.808Z,16.92
2018-07-02T01:00:52.825Z,16.92
2018-07-02T01:01:52.821Z,16.92
2018-07-02T01:02:52.836Z,16.91
2018-07-02T01:03:52.880Z,16.89
2018-07-02T01:04:52.945Z,16.77
2018-07-02T01:05:52.896Z,16.83
2018-07-02T01:06:52.863Z,16.79
2018-07-02T01:07:52.894Z,16.80
2018-07-02T01:08:52.906Z,16.91
2018-07-02T01:09:52.905Z,16.77
2018-07-02T01:10:52.966Z,16.82
2018-07-02T01:11:52.939Z,16.89
2018-07-02T01:12:52.947Z,16.79
2018-07-02T01:13:52.951Z,16.89
2018-07-02T01:14:52.960Z,16.76
2018-07-02T01:15:53.023Z,16.89
2018-07-02T01:16:53.031Z,16.89
2018-07-02T01:17:53.004Z,16.80
2018-07-02T01:18:53.021Z,16.77
2018-07-02T01:19:53.032Z,16.91
2018-07-02T01:20:53.024Z,16.89
2018-07-02T01:21:53.073Z,16.83
2018-07-02T01:22:53.084Z,16.91
2018-07-02T01:23:53.060Z,16.89
2018-07-02T01:24:53.066Z,16.95
2018-07-02T01:25:53.095Z,16.86
2018-07-02T01:26:53.143Z,16.77
2018-07-02T01:27:53.143Z,16.82
2018-07-02T01:28:53.116Z,16.69
2018-07-02T01:29:53.132Z,16.80
2018-07-02T01:30:53.137Z,16.94
2018-07-02T01:31:53.150Z,16.92
2018-07-02T01:32:53.198Z,16.87
2018-07-02T01:33:53.183Z,16.79
2018-07-02T01:34:53.181Z,16.82
2018-07-02T01:35:53.206Z,16.86
2018-07-02T01:36:53.213Z,17.01
2018-07-02T01:37:53.250Z,16.91
2018-07-02T01:38:53.290Z,16.94
2018-07-02T01:39:53.233Z,16.97
2018-07-02T01:40:53.250Z,16.97
2018-07-02T01:41:53.252Z,16.97
2018-07-02T01:42:53.261Z,16.98
2018-07-02T01:43:53.289Z,16.91
2018-07-02T01:44:53.338Z,16.92
2018-07-02T01:45:53.292Z,16.95
2018-07-02T01:46:53.345Z,16.89
2018-07-02T01:47:53.330Z,16.86
2018-07-02T01:48:53.405Z,16.94
2018-07-02T01:49:53.347Z,16.79
2018-07-02T01:50:53.350Z,16.82
2018-07-02T01:51:53.363Z,16.84
2018-07-02T01:52:53.392Z,16.87
2018-07-02T01:53:53.421Z,16.86
2018-07-02T01:54:53.402Z,16.89
2018-07-02T01:55:53.431Z,16.76
2018-07-02T01:56:53.420Z,16.82
2018-07-02T01:57:53.431Z,16.94
2018-07-02T01:58:53.467Z,16.87
2018-07-02T01:59:53.473Z,16.92
2018-07-02T02:00:53.477Z,16.86
2018-07-02T02:01:53.466Z,16.91
2018-07-02T02:02:53.499Z,16.94
2018-07-02T02:03:53.516Z,16.94
2018-07-02T02:04:53.543Z,16.94
2018-07-02T02:05:53.530Z,17.04
2018-07-02T02:06:53.567Z,17.01
2018-07-02T02:07:53.545Z,17.07
2018-07-02T02:08:53.552Z,17.05
2018-07-02T02:09:53.625Z,17.04
2018-07-02T02:10:53.609Z,17.10
2018-07-02T02:11:53.593Z,17.12
2018-07-02T02:12:53.588Z,17.05
2018-07-02T02:13:53.616Z,17.10
2018-07-02T02:14:53.655Z,17.09
2018-07-02T02:15:53.657Z,17.20
2018-07-02T02:16:53.646Z,17.16
2018-07-02T02:17:53.676Z,17.16
2018-07-02T02:18:53.654Z,17.24
2018-07-02T02:19:53.669Z,17.12
2018-07-02T02:20:53.705Z,17.12
2018-07-02T02:21:53.703Z,17.13
2018-07-02T02:22:53.748Z,17.19
2018-07-02T02:23:53.720Z,17.19
2018-07-02T02:24:53.737Z,17.13
2018-07-02T02:25:53.729Z,17.16
2018-07-02T02:26:53.782Z,17.14
2018-07-02T02:27:53.801Z,16.99
2018-07-02T02:28:53.808Z,16.97
2018-07-02T02:29:53.796Z,16.95
2018-07-02T02:30:53.794Z,16.87
2018-07-02T02:31:53.824Z,16.89
2018-07-02T02:32:53.833Z,16.77
2018-07-02T02:33:53.876Z,16.69
2018-07-02T02:34:53.828Z,16.76
2018-07-02T02:35:53.860Z,16.72
2018-07-02T02:36:53.863Z,16.76
2018-07-02T02:37:53.875Z,16.83
2018-07-02T02:38:53.912Z,16.74
2018-07-02T02:39:53.884Z,16.69
2018-07-02T02:40:53.927Z,16.65
2018-07-02T02:41:53.935Z,16.62
2018-07-02T02:42:53.934Z,16.51
2018-07-02T02:43:53.945Z,16.51
2018-07-02T02:44:53.985Z,16.29
2018-07-02T02:45:53.946Z,16.37
2018-07-02T02:46:53.977Z,16.29
2018-07-02T02:47:53.982Z,16.31
2018-07-02T02:48:53.998Z,16.24
2018-07-02T02:49:54.017Z,16.25
2018-07-02T02:50:54.026Z,16.34
2018-07-02T02:51:54.055Z,16.40
2018-07-02T02:52:54.084Z,16.37
2018-07-02T02:53:54.038Z,16.40
2018-07-02T02:54:54.064Z,16.47
2018-07-02T02:55:54.067Z,16.39
2018-07-02T02:56:54.083Z,16.44
2018-07-02T02:57:54.136Z,16.29
2018-07-02T02:58:54.127Z,16.25
2018-07-02T02:59:54.158Z,16.28
2018-07-02T03:00:54.121Z,16.25
2018-07-02T03:01:54.143Z,16.25
2018-07-02T03:02:54.129Z,16.31
2018-07-02T03:03:54.146Z,16.26
2018-07-02T03:04:54.162Z,16.18
2018-07-02T03:05:54.206Z,16.17
2018-07-02T03:06:54.176Z,16.17
2018-07-02T03:07:54.218Z,16.22
2018-07-02T03:08:54.217Z,16.13
2018-07-02T03:09:54.221Z,16.17
2018-07-02T03:10:54.266Z,16.02
2018-07-02T03:11:54.248Z,15.99
2018-07-02T03:12:54.264Z,15.90
2018-07-02T03:13:54.260Z,15.85
2018-07-02T03:14:54.278Z,15.80
2018-07-02T03:15:54.312Z,15.75
2018-07-02T03:16:54.289Z,15.72
2018-07-02T03:17:54.340Z,15.90
2018-07-02T03:18:54.315Z,15.91
2018-07-02T03:19:54.339Z,15.88
2018-07-02T03:20:54.322Z,15.87
2018-07-02T03:21:54.333Z,15.94
2018-07-02T03:22:54.379Z,15.94
2018-07-02T03:23:54.400Z,16.03
2018-07-02T03:24:54.384Z,16.05
2018-07-02T03:25:54.403Z,16.02
2018-07-02T03:26:54.453Z,16.09
2018-07-02T03:27:54.415Z,16.08
2018-07-02T03:28:54.413Z,16.10
2018-07-02T03:29:54.426Z,16.17
2018-07-02T03:30:54.460Z,16.21
2018-07-02T03:31:54.446Z,16.26
2018-07-02T03:32:54.489Z,16.28
2018-07-02T03:33:54.467Z,16.31
2018-07-02T03:34:54.471Z,16.25
2018-07-02T03:35:54.498Z,16.24
2018-07-02T03:36:54.501Z,16.28
2018-07-02T03:37:54.591Z,16.24
2018-07-02T03:38:54.532Z,16.28
2018-07-02T03:39:54.543Z,16.29
2018-07-02T03:40:54.545Z,16.36
2018-07-02T03:41:54.585Z,16.28
2018-07-02T03:42:54.573Z,16.40
2018-07-02T03:43:54.604Z,16.41
2018-07-02T03:44:54.619Z,16.47
2018-07-02T03:45:54.605Z,16.58
2018-07-02T03:46:54.610Z,16.59
2018-07-02T03:47:54.621Z,16.65
2018-07-02T03:48:54.660Z,16.64
2018-07-02T03:49:54.656Z,16.69
2018-07-02T03:50:54.680Z,16.74
2018-07-02T03:51:54.658Z,16.74
2018-07-02T03:52:54.680Z,16.76
2018-07-02T03:53:54.687Z,16.83
2018-07-02T03:54:54.712Z,16.74
2018-07-02T03:55:54.713Z,16.91
2018-07-02T03:56:54.732Z,16.91
2018-07-02T03:57:54.728Z,16.95
2018-07-02T03:58:54.733Z,16.98
2018-07-02T03:59:54.797Z,17.10
2018-07-02T04:00:54.767Z,17.09
2018-07-02T04:01:54.776Z,17.20
2018-07-02T04:02:54.783Z,17.22
2018-07-02T04:03:54.794Z,17.30
2018-07-02T04:04:54.832Z,17.35
2018-07-02T04:05:54.823Z,17.37
2018-07-02T04:06:54.860Z,17.42
2018-07-02T04:07:54.842Z,17.60
2018-07-02T04:08:54.858Z,17.60
2018-07-02T04:09:54.874Z,17.59
2018-07-02T04:10:54.873Z,17.66
2018-07-02T04:11:54.929Z,17.72
2018-07-02T04:12:54.954Z,17.75
2018-07-02T04:13:54.921Z,17.86
2018-07-02T04:14:54.970Z,17.95
2018-07-02T04:15:54.946Z,17.90
2018-07-02T04:16:54.983Z,18.05
2018-07-02T04:17:54.955Z,17.97
2018-07-02T04:18:54.968Z,18.06
2018-07-02T04:19:54.986Z,18.18
2018-07-02T04:20:54.997Z,18.12
2018-07-02T04:21:55.052Z,18.21
2018-07-02T04:22:55.022Z,18.39
2018-07-02T04:23:55.037Z,18.41
2018-07-02T04:24:55.070Z,18.53
2018-07-02T04:25:55.113Z,18.51
2018-07-02T04:26:55.053Z,18.58
2018-07-02T04:27:55.067Z,18.73
2018-07-02T04:28:55.089Z,18.70
2018-07-02T04:30:04.686Z,18.74
2018-07-02T04:31:02.136Z,18.76
2018-07-02T04:32:02.675Z,18.79
2018-07-02T04:42:00.097Z,18.88
2018-07-02T04:42:59.901Z,19.11
2018-07-02T04:43:59.895Z,19.12
2018-07-02T04:44:59.915Z,19.09
2018-07-02T04:46:00.171Z,19.22
2018-07-02T04:46:59.990Z,19.16
2018-07-02T04:48:00.319Z,19.22
2018-07-02T04:48:59.961Z,19.30
2018-07-02T04:49:59.967Z,19.24
2018-07-02T04:50:59.984Z,19.27
2018-07-02T04:51:59.990Z,19.23
2018-07-02T04:53:00.052Z,19.27
2018-07-02T04:54:00.049Z,19.30
2018-07-02T04:55:00.040Z,19.39
2018-07-02T04:56:00.053Z,19.52
2018-07-02T04:57:00.071Z,19.57
2018-07-02T04:58:00.087Z,19.66
2018-07-02T04:59:00.116Z,19.64
2018-07-02T05:00:00.140Z,19.57
2018-07-02T05:01:00.151Z,19.62
2018-07-02T05:02:00.111Z,19.57
2018-07-02T05:03:00.127Z,19.64
2018-07-02T05:04:00.161Z,19.71
2018-07-02T05:05:00.263Z,19.72
2018-07-02T05:06:00.188Z,19.79
2018-07-02T05:07:00.194Z,19.75
2018-07-02T05:08:00.209Z,19.77
2018-07-02T05:09:00.218Z,19.78
2018-07-02T05:10:00.226Z,19.81
2018-07-02T05:11:00.280Z,19.87
2018-07-02T05:12:00.263Z,20.02
2018-07-02T05:13:00.290Z,20.15
2018-07-02T05:14:00.294Z,20.07
2018-07-02T05:15:00.302Z,20.21
2018-07-02T05:16:00.358Z,20.32
2018-07-02T05:17:00.356Z,20.49
2018-07-02T05:18:00.331Z,20.64
2018-07-02T05:19:00.344Z,20.74
2018-07-02T05:20:00.390Z,20.80
2018-07-02T05:21:00.396Z,20.82
2018-07-02T05:22:00.451Z,20.75
2018-07-02T05:23:00.395Z,20.86
2018-07-02T05:24:00.411Z,20.77
2018-07-02T05:25:00.427Z,21.07
2018-07-02T05:26:00.439Z,21.13
2018-07-02T05:27:00.484Z,20.92
2018-07-02T05:28:00.487Z,21.04
2018-07-02T05:29:00.498Z,21.23
2018-07-02T05:30:00.544Z,21.43
2018-07-02T05:31:00.521Z,21.53
2018-07-02T05:32:00.525Z,21.32
2018-07-02T05:33:00.536Z,21.30
2018-07-02T05:34:00.544Z,21.32
2018-07-02T05:35:00.620Z,21.59
2018-07-02T05:36:00.601Z,21.69
2018-07-02T05:37:00.607Z,21.65
2018-07-02T05:38:00.623Z,21.53
2018-07-02T05:39:00.621Z,21.65
2018-07-02T05:40:00.676Z,21.60
2018-07-02T05:41:00.688Z,21.65
2018-07-02T05:42:00.691Z,21.50
2018-07-02T05:43:00.702Z,21.43
2018-07-02T05:44:00.706Z,21.38
2018-07-02T05:45:00.754Z,21.14
2018-07-02T05:46:00.743Z,21.15
2018-07-02T05:47:00.749Z,21.04
2018-07-02T05:48:00.779Z,21.04
2018-07-02T05:49:00.757Z,20.93
2018-07-02T05:50:00.805Z,20.71
2018-07-02T05:51:00.854Z,20.83
2018-07-02T05:52:00.822Z,20.92
2018-07-02T05:53:00.832Z,20.96
2018-07-02T05:54:00.836Z,20.82
2018-07-02T05:55:00.846Z,20.58
2018-07-02T05:56:00.914Z,20.55
2018-07-02T05:57:00.987Z,20.52
2018-07-02T05:58:00.905Z,20.53
2018-07-02T05:59:00.912Z,20.44
2018-07-02T06:00:00.930Z,20.49
2018-07-02T06:01:01.156Z,20.49
2018-07-02T06:02:01.195Z,20.50
2018-07-02T06:03:00.985Z,20.34
2018-07-02T06:04:00.987Z,20.33
2018-07-02T06:05:00.994Z,20.49
2018-07-02T06:06:01.063Z,20.50
2018-07-02T06:07:01.020Z,20.40
2018-07-02T06:08:01.063Z,20.46
2018-07-02T06:09:01.051Z,20.21
2018-07-02T06:10:01.053Z,19.96
2018-07-02T06:11:01.102Z,19.81
2018-07-02T06:12:01.101Z,19.71
2018-07-02T06:13:01.111Z,19.85
2018-07-02T06:14:01.172Z,19.89
2018-07-02T06:15:01.134Z,19.67
2018-07-02T06:16:01.145Z,19.59
2018-07-02T06:17:01.168Z,19.49
2018-07-02T06:18:01.173Z,19.29
2018-07-02T06:19:01.230Z,19.15
2018-07-02T06:20:01.200Z,19.11
2018-07-02T06:21:01.208Z,19.34
2018-07-02T06:22:01.232Z,19.22
2018-07-02T06:23:01.259Z,19.19
2018-07-02T06:24:01.289Z,19.30
2018-07-02T06:25:01.272Z,19.04
2018-07-02T06:26:01.275Z,19.07
2018-07-02T06:27:01.278Z,19.17
2018-07-02T06:28:01.291Z,19.20
2018-07-02T06:29:01.335Z,18.97
2018-07-02T06:30:01.330Z,18.92
2018-07-02T06:31:01.337Z,18.96
2018-07-02T06:32:01.475Z,19.09
2018-07-02T06:33:01.357Z,19.08
2018-07-02T06:34:01.389Z,18.92
2018-07-02T06:35:01.419Z,18.78
2018-07-02T06:36:01.398Z,18.82
2018-07-02T06:37:01.428Z,18.98
2018-07-02T06:38:01.412Z,19.05
2018-07-02T06:39:01.439Z,19.00
2018-07-02T06:40:01.484Z,18.94
2018-07-02T06:41:01.471Z,19.00
2018-07-02T06:42:01.533Z,19.04
2018-07-02T06:43:01.502Z,19.12
2018-07-02T06:44:01.497Z,18.98
2018-07-02T06:45:01.534Z,18.89
2018-07-02T06:46:01.512Z,18.96
2018-07-02T06:47:01.565Z,19.15
2018-07-02T06:48:01.539Z,19.04
2018-07-02T06:49:01.614Z,19.05
2018-07-02T06:50:01.577Z,18.96
2018-07-02T06:51:01.606Z,19.08
2018-07-02T06:52:01.594Z,19.08
2018-07-02T06:53:01.599Z,19.24
2018-07-02T06:54:01.645Z,19.23
2018-07-02T06:55:01.622Z,19.15
2018-07-02T06:56:01.685Z,19.08
2018-07-02T06:57:01.647Z,19.08
2018-07-02T06:58:01.681Z,19.19
2018-07-02T06:59:01.685Z,19.27
2018-07-02T07:00:01.701Z,19.23
2018-07-02T07:01:01.766Z,19.22
2018-07-02T07:02:01.709Z,19.29
2018-07-02T07:03:01.747Z,19.20
2018-07-02T07:04:01.745Z,19.30
2018-07-02T07:05:01.757Z,19.37
2018-07-02T07:06:01.792Z,19.35
2018-07-02T07:07:01.815Z,19.37
2018-07-02T07:08:01.804Z,19.34
2018-07-02T07:09:01.829Z,19.34
2018-07-02T07:10:01.818Z,19.34
2018-07-02T07:11:01.852Z,19.34
2018-07-02T07:12:01.882Z,19.44
2018-07-02T07:13:01.874Z,19.45
2018-07-02T07:14:01.861Z,19.42
2018-07-02T07:15:01.924Z,19.42
2018-07-02T07:16:01.907Z,19.35
2018-07-02T07:17:01.977Z,19.27
2018-07-02T07:18:01.937Z,19.39
2018-07-02T07:19:01.937Z,19.37
2018-07-02T07:20:01.974Z,19.39
2018-07-02T07:21:01.977Z,19.38
2018-07-02T07:22:02.014Z,19.37
2018-07-02T07:23:01.991Z,19.44
2018-07-02T07:24:02.006Z,19.45
2018-07-02T07:25:02.027Z,19.47
2018-07-02T07:26:02.013Z,19.45
2018-07-02T07:27:02.061Z,19.55
2018-07-02T07:28:02.048Z,19.56
2018-07-02T07:29:02.130Z,19.60
2018-07-02T07:30:02.072Z,19.63
2018-07-02T07:31:02.149Z,19.56
2018-07-02T07:32:02.101Z,19.47
2018-07-02T07:33:02.129Z,19.53
2018-07-02T07:34:02.110Z,19.60
2018-07-02T07:35:02.116Z,19.59
2018-07-02T07:36:02.173Z,19.62
2018-07-02T07:37:02.159Z,19.71
2018-07-02T07:38:02.181Z,19.78
2018-07-02T07:39:02.189Z,19.72
2018-07-02T07:40:02.202Z,19.66
2018-07-02T07:41:02.234Z,19.56
2018-07-02T07:42:02.218Z,19.59
2018-07-02T07:43:02.222Z,19.64
2018-07-02T07:44:02.253Z,19.67
2018-07-02T07:45:02.249Z,19.66
2018-07-02T07:46:02.294Z,19.75
2018-07-02T07:47:02.278Z,19.72
2018-07-02T07:48:02.296Z,19.84
2018-07-02T07:49:02.351Z,19.78
2018-07-02T07:50:02.309Z,19.64
2018-07-02T07:51:02.327Z,19.78
2018-07-02T07:52:02.333Z,19.89
2018-07-02T07:53:02.348Z,19.81
2018-07-02T07:54:02.406Z,19.82
2018-07-02T07:55:02.377Z,19.82
2018-07-02T07:56:02.400Z,19.93
2018-07-02T07:57:02.412Z,19.82
2018-07-02T07:58:02.409Z,19.85
2018-07-02T07:59:02.471Z,20.02
2018-07-02T08:00:02.445Z,19.94
2018-07-02T08:01:02.467Z,19.89
2018-07-02T08:02:02.475Z,19.99
2018-07-02T08:03:02.477Z,19.79
2018-07-02T08:04:02.531Z,19.82
2018-07-02T08:05:02.496Z,19.82
2018-07-02T08:06:02.525Z,19.82
2018-07-02T08:07:02.544Z,19.81
2018-07-02T08:08:02.537Z,19.79
2018-07-02T08:09:02.575Z,19.89
2018-07-02T08:10:02.561Z,19.94
2018-07-02T08:11:02.626Z,19.92
2018-07-02T08:12:02.583Z,19.81
2018-07-02T08:13:02.605Z,19.82
2018-07-02T08:14:02.607Z,19.84
2018-07-02T08:15:02.646Z,19.90
2018-07-02T08:16:02.671Z,19.87
2018-07-02T08:17:02.697Z,19.93
2018-07-02T08:18:02.657Z,19.99
2018-07-02T08:19:02.758Z,20.02
2018-07-02T08:20:02.690Z,19.90
2018-07-02T08:21:02.746Z,19.97
2018-07-02T08:22:02.752Z,19.93
2018-07-02T08:23:02.716Z,19.89
2018-07-02T08:24:02.759Z,20.02
2018-07-02T08:25:02.760Z,20.10
2018-07-02T08:26:02.774Z,20.08
2018-07-02T08:27:02.827Z,20.02
2018-07-02T08:28:02.815Z,19.93
2018-07-02T08:29:02.799Z,20.04
2018-07-02T08:30:02.815Z,20.11
2018-07-02T08:31:02.839Z,20.07
2018-07-02T08:32:02.874Z,20.14
2018-07-02T08:33:02.894Z,20.11
2018-07-02T08:34:02.893Z,20.15
2018-07-02T08:35:02.885Z,20.15
2018-07-02T08:36:02.908Z,20.26
2018-07-02T08:37:02.899Z,20.26
2018-07-02T08:38:02.908Z,20.22
2018-07-02T08:39:02.980Z,20.19
2018-07-02T08:40:02.955Z,20.21
2018-07-02T08:41:02.961Z,20.37
2018-07-02T08:42:02.966Z,20.24
2018-07-02T08:43:02.995Z,20.33
2018-07-02T08:44:03.029Z,20.33
2018-07-02T08:45:03.019Z,20.32
2018-07-02T08:46:03.023Z,20.32
2018-07-02T08:47:03.024Z,20.21
2018-07-02T08:48:03.051Z,20.32
2018-07-02T08:49:03.088Z,20.42
2018-07-02T08:50:03.106Z,20.40
2018-07-02T08:51:03.081Z,20.18
2018-07-02T08:52:03.127Z,20.30
2018-07-02T08:53:03.119Z,20.19
2018-07-02T08:54:03.144Z,20.19
2018-07-02T08:55:03.189Z,20.03
2018-07-02T08:56:03.169Z,20.21
2018-07-02T08:57:03.157Z,20.24
2018-07-02T08:58:03.181Z,20.21
2018-07-02T08:59:03.170Z,20.26
2018-07-02T09:00:03.229Z,20.27
2018-07-02T09:01:03.234Z,20.22
2018-07-02T09:02:03.228Z,20.27
2018-07-02T09:03:03.307Z,20.27
2018-07-02T09:04:03.247Z,20.22
2018-07-02T09:05:03.255Z,20.33
2018-07-02T09:06:03.323Z,20.36
2018-07-02T09:07:03.333Z,20.18
2018-07-02T09:08:03.296Z,20.17
2018-07-02T09:09:03.303Z,20.27
2018-07-02T09:10:03.338Z,20.39
2018-07-02T09:11:03.371Z,20.34
2018-07-02T09:12:03.354Z,20.39
2018-07-02T09:13:03.409Z,20.37
2018-07-02T09:14:03.392Z,20.44
2018-07-02T09:15:03.380Z,20.46
2018-07-02T09:16:03.442Z,20.34
2018-07-02T09:17:03.402Z,20.33
2018-07-02T09:18:10.496Z,20.39
2018-07-02T09:19:03.426Z,20.39
2018-07-02T09:20:03.439Z,20.49
2018-07-02T09:21:03.465Z,20.42
2018-07-02T09:22:03.465Z,20.42
2018-07-02T09:23:03.478Z,20.48
2018-07-02T09:24:03.535Z,20.48
2018-07-02T09:25:03.510Z,20.63
2018-07-02T09:26:03.519Z,20.58
2018-07-02T09:27:03.548Z,20.67
2018-07-02T09:28:03.581Z,20.63
2018-07-02T09:29:03.617Z,20.64
2018-07-02T09:30:03.589Z,20.59
2018-07-02T09:31:03.584Z,20.63
2018-07-02T09:32:03.594Z,20.46
2018-07-02T09:33:03.696Z,20.52
2018-07-02T09:34:03.654Z,20.49
2018-07-02T09:35:03.693Z,20.56
2018-07-02T09:36:03.675Z,20.73
2018-07-02T09:37:03.660Z,20.78
2018-07-02T09:38:03.690Z,20.82
2018-07-02T09:39:03.728Z,20.80
2018-07-02T09:40:03.750Z,20.86
2018-07-02T09:41:03.762Z,20.93
2018-07-02T09:42:03.736Z,20.92
2018-07-02T09:43:03.746Z,20.89
2018-07-02T09:44:03.759Z,20.95
2018-07-02T09:45:03.777Z,20.95
2018-07-02T09:46:03.887Z,21.00
2018-07-02T09:47:03.792Z,21.04
2018-07-02T09:48:03.810Z,20.95
2018-07-02T09:49:03.813Z,21.01
2018-07-02T09:50:03.840Z,20.93
2018-07-02T09:51:04.124Z,21.08
2018-07-02T09:52:03.874Z,20.98
2018-07-02T09:53:03.867Z,20.98
2018-07-02T09:54:03.936Z,20.90
2018-07-02T09:55:03.931Z,21.05
2018-07-02T09:56:03.919Z,21.11
2018-07-02T09:57:03.918Z,21.14
2018-07-02T09:58:03.944Z,21.14
2018-07-02T09:59:04.090Z,21.15
2018-07-02T10:00:03.966Z,21.08
2018-07-02T10:01:03.980Z,21.14
2018-07-02T10:02:04.004Z,21.15
2018-07-02T10:03:03.997Z,21.08
2018-07-02T10:04:04.042Z,21.22
2018-07-02T10:05:04.030Z,21.17
2018-07-02T10:06:04.107Z,21.14
2018-07-02T10:07:04.068Z,21.14
2018-07-02T10:08:04.077Z,21.17
2018-07-02T10:09:04.080Z,21.22
2018-07-02T10:10:04.169Z,21.38
2018-07-02T10:11:04.120Z,21.33
2018-07-02T10:12:04.189Z,21.37
2018-07-02T10:13:04.125Z,21.35
2018-07-02T10:14:04.198Z,21.35
2018-07-02T10:15:04.237Z,21.47
2018-07-02T10:16:04.172Z,21.48
2018-07-02T10:17:04.244Z,21.44
2018-07-02T10:18:04.228Z,21.54
2018-07-02T10:19:04.225Z,21.58
2018-07-02T10:20:04.230Z,21.38
2018-07-02T10:21:04.235Z,21.53
2018-07-02T10:22:04.290Z,21.50
2018-07-02T10:23:04.282Z,21.43
2018-07-02T10:24:04.287Z,21.56
2018-07-02T10:25:04.301Z,21.60
2018-07-02T10:26:04.297Z,21.56
2018-07-02T10:27:04.356Z,21.59
2018-07-02T10:28:04.658Z,21.59
2018-07-02T10:29:04.396Z,21.63
2018-07-02T10:30:04.385Z,21.59
2018-07-02T10:31:04.425Z,21.60
2018-07-02T10:32:04.408Z,21.59
2018-07-02T10:33:04.404Z,21.54
2018-07-02T10:34:04.420Z,21.62
2018-07-02T10:35:04.506Z,21.56
2018-07-02T10:36:04.437Z,21.43
2018-07-02T10:37:04.456Z,21.54
2018-07-02T10:38:04.475Z,21.53
2018-07-02T10:39:04.488Z,21.53
2018-07-02T10:40:04.519Z,21.62
2018-07-02T10:41:04.523Z,21.51
2018-07-02T10:42:04.523Z,21.66
2018-07-02T10:43:04.555Z,21.62
2018-07-02T10:44:04.595Z,21.69
2018-07-02T10:45:04.596Z,21.58
2018-07-02T10:46:04.604Z,21.60
2018-07-02T10:47:04.616Z,21.77
2018-07-02T10:48:04.629Z,21.75
2018-07-02T10:49:04.617Z,21.78
2018-07-02T10:50:04.627Z,21.84
2018-07-02T10:51:04.713Z,21.78
2018-07-02T10:52:04.657Z,21.84
2018-07-02T10:53:04.684Z,21.88
2018-07-02T10:54:04.759Z,21.74
2018-07-02T10:55:04.824Z,21.75
2018-07-02T10:56:04.741Z,21.84
2018-07-02T10:57:04.756Z,21.84
2018-07-02T10:58:04.804Z,21.69
2018-07-02T10:59:04.758Z,21.68
2018-07-02T11:00:05.751Z,21.69
2018-07-02T11:01:04.787Z,21.72
2018-07-02T11:02:04.783Z,21.66
2018-07-02T11:03:04.842Z,21.72
2018-07-02T11:04:04.831Z,21.81
2018-07-02T11:05:04.827Z,21.83
2018-07-02T11:06:05.813Z,21.81
2018-07-02T11:07:04.952Z,21.77
2018-07-02T11:08:05.122Z,21.81
2018-07-02T11:09:04.996Z,21.83
2018-07-02T11:10:04.987Z,21.75
2018-07-02T11:11:04.972Z,21.80
2018-07-02T11:12:04.940Z,21.85
2018-07-02T11:13:05.281Z,21.75
2018-07-02T11:14:04.997Z,21.88
2018-07-02T11:15:04.970Z,21.85
2018-07-02T11:16:04.985Z,21.89
2018-07-02T11:17:05.045Z,21.78
2018-07-02T11:18:05.040Z,21.89
2018-07-02T11:19:05.054Z,21.88
2018-07-02T11:20:05.162Z,22.04
2018-07-02T11:21:05.055Z,22.10
2018-07-02T11:22:05.066Z,22.14
2018-07-02T11:23:05.075Z,22.19
2018-07-02T11:24:05.110Z,22.15
2018-07-02T11:25:05.124Z,22.23
2018-07-02T11:26:05.144Z,22.21
2018-07-02T11:27:05.132Z,22.21
2018-07-02T11:28:05.185Z,22.26
2018-07-02T11:29:05.218Z,22.21
2018-07-02T11:30:05.215Z,22.26
2018-07-02T11:31:05.216Z,22.16
2018-07-02T11:32:05.261Z,22.19
2018-07-02T11:33:05.211Z,22.18
2018-07-02T11:34:05.224Z,22.15
2018-07-02T11:35:05.254Z,22.04
2018-07-02T11:36:05.256Z,22.07
2018-07-02T11:37:05.295Z,22.12
2018-07-02T11:38:05.302Z,22.03
2018-07-02T11:39:05.288Z,22.03
2018-07-02T11:40:05.318Z,22.19
2018-07-02T11:41:05.311Z,22.21
2018-07-02T11:42:05.396Z,22.18
2018-07-02T11:43:05.355Z,22.18
2018-07-02T11:44:05.484Z,22.12
2018-07-02T11:45:05.395Z,22.07
2018-07-02T11:46:05.393Z,22.07
2018-07-02T11:47:05.431Z,22.08
2018-07-02T11:48:05.451Z,22.04
2018-07-02T11:49:05.427Z,22.08
2018-07-02T11:50:05.454Z,22.07
2018-07-02T11:51:05.471Z,22.08
2018-07-02T11:52:05.476Z,22.18
2018-07-02T11:53:05.645Z,22.18
2018-07-02T11:54:05.519Z,22.23
2018-07-02T11:55:05.511Z,22.18
2018-07-02T11:56:05.611Z,22.08
2018-07-02T11:57:05.613Z,22.10
2018-07-02T11:58:05.598Z,22.08
2018-07-02T11:59:05.609Z,22.08
2018-07-02T12:00:05.731Z,22.03
2018-07-02T12:01:05.677Z,22.10
2018-07-02T12:02:05.621Z,22.07
2018-07-02T12:03:05.666Z,22.16
2018-07-02T12:04:05.695Z,22.19
2018-07-02T12:05:05.689Z,22.19
2018-07-02T12:06:05.703Z,22.10
2018-07-02T12:07:05.686Z,22.22
2018-07-02T12:08:05.705Z,22.23
2018-07-02T12:09:05.708Z,22.21
2018-07-02T12:10:05.792Z,22.22
2018-07-02T12:11:05.803Z,22.23
2018-07-02T12:12:05.751Z,22.19
2018-07-02T12:13:05.763Z,22.10
2018-07-02T12:14:05.874Z,22.12
2018-07-02T12:15:05.808Z,22.12
2018-07-02T12:16:05.801Z,22.12
2018-07-02T12:17:05.904Z,22.14
2018-07-02T12:18:05.879Z,22.15
2018-07-02T12:19:05.852Z,22.21
2018-07-02T12:20:05.908Z,22.16
2018-07-02T12:21:05.898Z,22.10
2018-07-02T12:22:05.930Z,22.26
2018-07-02T12:23:05.898Z,22.22
2018-07-02T12:24:05.938Z,22.21
2018-07-02T12:25:05.918Z,22.25
2018-07-02T12:26:05.964Z,22.22
2018-07-02T12:27:05.993Z,22.33
2018-07-02T12:28:05.961Z,22.37
2018-07-02T12:29:05.991Z,22.43
2018-07-02T12:30:06.015Z,22.36
2018-07-02T12:31:06.054Z,22.43
2018-07-02T12:32:06.014Z,22.34
2018-07-02T12:33:06.054Z,22.38
2018-07-02T12:34:06.073Z,22.21
2018-07-02T12:35:06.071Z,22.31
2018-07-02T12:36:06.086Z,22.38
2018-07-02T12:37:06.092Z,22.34
2018-07-02T12:38:06.142Z,22.37
2018-07-02T12:39:06.278Z,22.37
2018-07-02T12:40:06.167Z,22.37
2018-07-02T12:41:06.152Z,22.31
2018-07-02T12:42:06.182Z,22.36
2018-07-02T12:43:06.245Z,22.37
2018-07-02T12:44:06.229Z,22.40
2018-07-02T12:45:06.189Z,22.38
2018-07-02T12:46:06.208Z,22.46
2018-07-02T12:47:06.247Z,22.37
2018-07-02T12:48:06.242Z,22.31
2018-07-02T12:49:06.303Z,22.34
2018-07-02T12:50:06.301Z,22.40
2018-07-02T12:51:06.296Z,22.30
2018-07-02T12:52:06.330Z,22.37
2018-07-02T12:53:06.312Z,22.36
2018-07-02T12:54:06.377Z,22.31
2018-07-02T12:55:06.421Z,22.28
2018-07-02T12:56:06.374Z,22.34
2018-07-02T12:57:06.363Z,22.33
2018-07-02T12:58:06.432Z,22.34
2018-07-02T12:59:06.407Z,22.38
2018-07-02T13:00:06.444Z,22.47
2018-07-02T13:01:06.493Z,22.40
2018-07-02T13:02:06.439Z,22.51